createdAt,value
2022-07-25T00:01:20.542Z,1.70
2022-07-25T00:03:47.826Z,1.20
2022-07-25T00:06:17.833Z,1.48
2022-07-25T00:08:45.075Z,1.67
2022-07-25T00:11:12.067Z,1.30
2022-07-25T00:13:39.163Z,1.05
2022-07-25T00:16:06.780Z,1.17
2022-07-25T00:18:33.920Z,1.20
2022-07-25T00:21:01.063Z,1.48
2022-07-25T00:23:28.047Z,1.10
2022-07-25T00:25:55.059Z,1.33
2022-07-25T00:28:22.034Z,0.98
2022-07-25T00:30:49.893Z,1.10
2022-07-25T00:33:16.930Z,1.50
2022-07-25T00:35:44.006Z,1.10
2022-07-25T00:38:11.027Z,1.10
2022-07-25T00:40:38.471Z,1.00
2022-07-25T00:43:08.275Z,1.33
2022-07-25T00:45:35.436Z,1.30
2022-07-25T00:48:02.394Z,1.30
2022-07-25T00:50:29.817Z,0.90
2022-07-25T00:52:57.110Z,1.15
2022-07-25T00:55:26.181Z,0.93
2022-07-25T00:57:53.172Z,1.30
2022-07-25T01:00:20.377Z,1.15
2022-07-25T01:02:48.064Z,1.05
2022-07-25T01:05:18.087Z,1.30
2022-07-25T01:07:45.835Z,1.35
2022-07-25T01:10:12.889Z,1.05
2022-07-25T01:12:55.530Z,1.20
2022-07-25T01:15:24.575Z,1.33
2022-07-25T01:17:51.911Z,1.33
2022-07-25T01:20:27.036Z,1.38
2022-07-25T01:22:54.737Z,1.40
2022-07-25T01:25:22.900Z,1.40
2022-07-25T01:27:55.896Z,1.50
2022-07-25T01:30:25.350Z,1.40
2022-07-25T01:32:52.939Z,1.20
2022-07-25T01:35:20.117Z,1.27
2022-07-25T01:37:47.244Z,1.02
2022-07-25T01:40:15.068Z,1.38
2022-07-25T01:42:43.561Z,1.38
2022-07-25T01:45:12.224Z,1.20
2022-07-25T01:47:40.243Z,1.52
2022-07-25T01:50:08.693Z,1.52
2022-07-25T01:52:39.567Z,1.60
2022-07-25T01:55:07.650Z,1.60
2022-07-25T01:57:36.114Z,1.23
2022-07-25T02:00:08.105Z,1.42
2022-07-25T02:02:35.865Z,1.40
2022-07-25T02:05:03.110Z,1.50
2022-07-25T02:07:30.259Z,1.38
2022-07-25T02:09:57.240Z,1.42
2022-07-25T02:12:24.211Z,1.60
2022-07-25T02:14:51.296Z,1.37
2022-07-25T02:17:18.374Z,1.37
2022-07-25T02:19:45.614Z,1.30
2022-07-25T02:22:12.652Z,1.30
2022-07-25T02:24:39.875Z,1.50
2022-07-25T02:27:07.010Z,1.10
2022-07-25T02:29:34.115Z,1.63
2022-07-25T02:32:01.102Z,1.40
2022-07-25T02:34:28.159Z,1.20
2022-07-25T02:36:55.176Z,1.53
2022-07-25T02:39:22.222Z,1.50
2022-07-25T02:41:49.235Z,1.30
2022-07-25T02:44:16.227Z,1.60
2022-07-25T02:46:43.271Z,1.57
2022-07-25T02:49:11.874Z,1.50
2022-07-25T02:51:39.035Z,1.20
2022-07-25T02:54:06.147Z,1.40
2022-07-25T02:56:33.228Z,1.50
2022-07-25T02:59:00.294Z,1.47
2022-07-25T03:01:27.366Z,1.30
2022-07-25T03:03:54.491Z,1.30
2022-07-25T03:06:21.568Z,1.40
2022-07-25T03:08:48.649Z,1.10
2022-07-25T03:11:16.796Z,1.60
2022-07-25T03:13:43.811Z,1.30
2022-07-25T03:16:11.060Z,1.70
2022-07-25T03:18:38.622Z,1.30
2022-07-25T03:21:06.054Z,1.37
2022-07-25T03:23:33.086Z,1.50
2022-07-25T03:26:00.044Z,1.27
2022-07-25T03:28:27.023Z,1.30
2022-07-25T03:30:54.838Z,1.40
2022-07-25T03:33:21.878Z,1.30
2022-07-25T03:35:48.917Z,1.58
2022-07-25T03:38:16.319Z,1.33
2022-07-25T03:40:43.410Z,1.33
2022-07-25T03:43:10.503Z,1.47
2022-07-25T03:45:37.541Z,1.43
2022-07-25T03:48:04.782Z,1.60
2022-07-25T03:50:31.869Z,1.70
2022-07-25T03:52:58.934Z,1.37
2022-07-25T03:55:25.873Z,1.50
2022-07-25T03:57:52.869Z,1.40
2022-07-25T04:00:19.883Z,1.60
2022-07-25T04:02:47.083Z,1.30
2022-07-25T04:05:14.098Z,1.57
2022-07-25T04:07:41.087Z,1.80
2022-07-25T04:10:10.238Z,1.40
2022-07-25T04:12:38.944Z,1.40
2022-07-25T04:15:07.114Z,1.80
2022-07-25T04:17:34.084Z,1.50
2022-07-25T04:20:01.199Z,1.53
2022-07-25T04:22:28.235Z,1.73
2022-07-25T04:24:55.234Z,1.80
2022-07-25T04:27:22.291Z,1.80
2022-07-25T04:29:49.305Z,1.20
2022-07-25T04:32:21.390Z,1.60
2022-07-25T04:34:52.173Z,1.87
2022-07-25T04:37:19.169Z,1.83
2022-07-25T04:39:46.128Z,1.70
2022-07-25T04:42:13.121Z,1.83
2022-07-25T04:44:40.059Z,1.40
2022-07-25T04:47:07.056Z,1.48
2022-07-25T04:49:34.026Z,1.40
2022-07-25T04:52:01.007Z,1.80
2022-07-25T04:54:28.467Z,1.80
2022-07-25T04:56:55.672Z,1.95
2022-07-25T04:59:22.788Z,1.90
2022-07-25T05:01:49.858Z,1.60
2022-07-25T05:04:16.955Z,2.50
2022-07-25T05:06:44.277Z,1.90
2022-07-25T05:09:11.329Z,1.30
2022-07-25T05:11:39.728Z,1.40
2022-07-25T05:14:08.838Z,1.60
2022-07-25T05:16:36.250Z,2.05
2022-07-25T05:19:03.381Z,1.42
2022-07-25T05:21:30.470Z,1.48
2022-07-25T05:23:57.573Z,1.80
2022-07-25T05:26:27.738Z,1.50
2022-07-25T05:29:01.086Z,1.63
2022-07-25T05:32:03.686Z,1.58
2022-07-25T05:34:30.807Z,1.65
2022-07-25T05:36:57.746Z,1.70
2022-07-25T05:39:24.721Z,1.65
2022-07-25T05:41:51.758Z,2.00
2022-07-25T05:44:18.903Z,2.63
2022-07-25T05:46:47.720Z,2.30
2022-07-25T05:49:16.227Z,1.83
2022-07-25T05:51:43.316Z,1.98
2022-07-25T05:54:12.861Z,1.85
2022-07-25T05:56:40.057Z,1.90
2022-07-25T05:59:07.056Z,1.90
2022-07-25T06:01:34.792Z,1.50
2022-07-25T06:04:02.894Z,1.60
2022-07-25T06:06:32.628Z,1.70
2022-07-25T06:08:59.825Z,1.83
2022-07-25T06:11:31.475Z,1.70
2022-07-25T06:13:59.302Z,1.83
2022-07-25T06:16:29.645Z,1.83
2022-07-25T06:18:56.625Z,1.63
2022-07-25T06:21:23.598Z,1.85
2022-07-25T06:23:53.184Z,1.90
2022-07-25T06:26:20.317Z,2.10
2022-07-25T06:28:48.052Z,2.17
2022-07-25T06:31:15.191Z,2.22
2022-07-25T06:33:42.226Z,2.28
2022-07-25T06:36:09.614Z,2.28
2022-07-25T06:38:37.014Z,2.55
2022-07-25T06:41:04.291Z,1.88
2022-07-25T06:43:31.287Z,2.58
2022-07-25T06:45:58.255Z,2.40
2022-07-25T06:48:26.615Z,2.20
2022-07-25T06:50:53.657Z,2.05
2022-07-25T06:53:20.866Z,2.15
2022-07-25T06:55:48.099Z,2.35
2022-07-25T06:58:15.119Z,2.17
2022-07-25T07:00:43.339Z,2.15
2022-07-25T07:03:10.946Z,2.25
2022-07-25T07:05:39.905Z,2.30
2022-07-25T07:08:07.084Z,2.72
2022-07-25T07:10:47.880Z,2.35
2022-07-25T07:13:30.267Z,2.53
2022-07-25T07:15:57.943Z,2.35
2022-07-25T07:18:25.060Z,2.55
2022-07-25T07:20:54.822Z,2.85
2022-07-25T07:23:21.785Z,2.60
2022-07-25T07:25:48.920Z,2.70
2022-07-25T07:28:17.207Z,2.90
2022-07-25T07:33:35.156Z,2.80
2022-07-25T07:36:02.686Z,2.92
2022-07-25T07:38:30.875Z,3.03
2022-07-25T07:41:01.227Z,2.70
2022-07-25T07:43:31.964Z,2.97
2022-07-25T07:46:10.901Z,3.33
2022-07-25T07:48:38.779Z,3.03
2022-07-25T07:51:09.521Z,2.67
2022-07-25T07:54:10.630Z,3.10
2022-07-25T07:56:37.674Z,2.78
2022-07-25T07:59:08.444Z,3.10
2022-07-25T08:01:35.760Z,3.15
2022-07-25T08:04:11.888Z,3.25
2022-07-25T08:06:43.129Z,3.10
2022-07-25T08:09:11.417Z,3.03
2022-07-25T08:11:41.215Z,3.38
2022-07-25T08:14:08.595Z,3.67
2022-07-25T08:16:36.047Z,4.05
2022-07-25T08:19:03.332Z,4.82
2022-07-25T08:21:30.336Z,3.53
2022-07-25T08:23:57.360Z,3.60
2022-07-25T08:26:27.713Z,3.70
2022-07-25T08:29:17.173Z,3.63
2022-07-25T08:31:42.225Z,6.35
2022-07-25T08:34:09.840Z,3.67
2022-07-25T08:36:38.065Z,3.78
2022-07-25T08:39:05.510Z,4.60
2022-07-25T08:41:34.318Z,3.33
2022-07-25T08:44:02.860Z,3.92
2022-07-25T08:46:30.432Z,6.60
2022-07-25T08:48:57.897Z,4.40
2022-07-25T08:51:28.903Z,3.78
2022-07-25T08:53:55.969Z,4.10
2022-07-25T08:56:29.070Z,4.20
2022-07-25T08:58:59.387Z,3.67
2022-07-25T09:01:35.992Z,4.57
2022-07-25T09:04:11.742Z,5.55
2022-07-25T09:07:08.098Z,4.45
2022-07-25T09:09:40.643Z,4.22
2022-07-25T09:12:13.234Z,3.88
2022-07-25T09:14:54.356Z,4.35
2022-07-25T09:17:38.093Z,4.00
2022-07-25T09:20:38.501Z,4.40
2022-07-25T09:23:05.776Z,4.65
2022-07-25T09:28:21.226Z,4.45
2022-07-25T09:31:02.210Z,4.80
2022-07-25T09:33:56.574Z,4.53
2022-07-25T09:36:27.613Z,4.65
2022-07-25T09:40:04.162Z,5.15
2022-07-25T09:42:53.999Z,4.50
2022-07-25T09:45:28.274Z,4.45
2022-07-25T09:48:09.373Z,4.72
2022-07-25T09:51:04.085Z,4.72
2022-07-25T09:53:37.259Z,5.78
2022-07-25T09:59:45.040Z,4.60
2022-07-25T10:03:16.475Z,4.68
2022-07-25T10:06:29.463Z,5.05
2022-07-25T10:10:14.304Z,5.47
2022-07-25T10:13:35.319Z,5.80
2022-07-25T10:16:30.560Z,5.60
2022-07-25T10:19:02.094Z,5.45
2022-07-25T10:21:29.363Z,5.32
2022-07-25T10:24:13.292Z,5.70
2022-07-25T10:27:08.831Z,6.22
2022-07-25T10:29:40.712Z,5.10
2022-07-25T10:33:04.455Z,5.65
2022-07-25T10:35:35.220Z,5.90
2022-07-25T10:38:06.645Z,5.82
2022-07-25T10:40:44.537Z,5.80
2022-07-25T10:43:48.352Z,5.95
2022-07-25T10:46:28.117Z,6.00
2022-07-25T10:49:32.184Z,5.90
2022-07-25T10:53:22.365Z,5.65
2022-07-25T10:56:29.528Z,6.03
2022-07-25T11:02:18.347Z,6.18
2022-07-25T11:05:02.873Z,5.85
2022-07-25T11:07:36.375Z,6.28
2022-07-25T11:10:06.289Z,5.68
2022-07-25T11:12:33.857Z,5.60
2022-07-25T11:15:17.136Z,6.00
2022-07-25T11:17:56.321Z,6.28
2022-07-25T11:20:26.700Z,6.00
2022-07-25T11:22:56.109Z,8.90
2022-07-25T11:25:33.112Z,6.28
2022-07-25T11:28:13.625Z,6.38
2022-07-25T11:30:49.945Z,10.68
2022-07-25T11:33:26.080Z,6.40
2022-07-25T11:35:55.063Z,6.15
2022-07-25T11:38:33.532Z,6.07
2022-07-25T11:41:15.930Z,6.43
2022-07-25T11:43:50.130Z,6.50
2022-07-25T11:46:18.661Z,5.75
2022-07-25T11:48:46.194Z,6.10
2022-07-25T11:51:21.088Z,6.10
2022-07-25T11:53:51.385Z,6.05
2022-07-25T11:56:42.914Z,6.10
2022-07-25T11:59:11.770Z,6.13
2022-07-25T12:01:43.012Z,6.13
2022-07-25T12:05:17.875Z,6.55
2022-07-25T12:07:55.807Z,6.55
2022-07-25T12:13:45.675Z,5.90
2022-07-25T12:16:13.166Z,5.38
2022-07-25T12:18:41.243Z,5.95
2022-07-25T12:21:46.126Z,5.93
2022-07-25T12:24:45.825Z,5.95
2022-07-25T12:27:13.324Z,6.00
2022-07-25T12:29:54.359Z,6.53
2022-07-25T12:32:42.782Z,5.65
2022-07-25T12:35:15.558Z,5.95
2022-07-25T12:39:59.273Z,6.10
2022-07-25T12:40:51.453Z,5.93
2022-07-25T12:43:42.704Z,5.95
2022-07-25T12:50:03.819Z,6.43
2022-07-25T12:52:40.292Z,6.60
2022-07-25T12:55:15.900Z,6.82
2022-07-25T12:57:44.012Z,6.80
2022-07-25T13:00:28.996Z,5.82
2022-07-25T13:02:59.476Z,6.68
2022-07-25T13:05:42.816Z,6.80
2022-07-25T13:08:10.121Z,6.50
2022-07-25T13:11:34.457Z,6.90
2022-07-25T13:15:12.912Z,6.55
2022-07-25T13:17:40.510Z,6.78
2022-07-25T13:20:19.957Z,6.43
2022-07-25T13:22:50.919Z,6.50
2022-07-25T13:25:18.362Z,6.65
2022-07-25T13:27:47.576Z,7.07
2022-07-25T13:30:15.525Z,6.45
2022-07-25T13:32:42.604Z,5.90
2022-07-25T13:35:09.990Z,6.30
2022-07-25T13:37:49.068Z,6.50
2022-07-25T13:40:16.435Z,6.50
2022-07-25T13:42:43.501Z,6.70
2022-07-25T13:45:10.748Z,6.40
2022-07-25T13:47:38.032Z,5.95
2022-07-25T13:50:08.750Z,6.07
2022-07-25T13:52:35.991Z,5.97
2022-07-25T13:55:04.317Z,5.75
2022-07-25T13:57:33.644Z,6.28
2022-07-25T14:00:01.580Z,5.35
2022-07-25T14:02:29.680Z,5.70
2022-07-25T14:04:59.795Z,6.00
2022-07-25T14:07:30.646Z,6.40
2022-07-25T14:09:58.972Z,6.45
2022-07-25T14:12:32.106Z,6.97
2022-07-25T14:14:59.192Z,6.25
2022-07-25T14:17:30.133Z,6.65
2022-07-25T14:19:57.727Z,6.60
2022-07-25T14:22:24.799Z,6.70
2022-07-25T14:24:52.272Z,6.63
2022-07-25T14:27:19.767Z,8.25
2022-07-25T14:29:49.906Z,7.45
2022-07-25T14:32:17.117Z,7.15
2022-07-25T14:34:44.859Z,7.40
2022-07-25T14:37:18.025Z,7.35
2022-07-25T14:39:48.346Z,6.85
2022-07-25T14:42:15.595Z,6.90
2022-07-25T14:44:52.081Z,6.88
2022-07-25T14:47:22.673Z,6.65
2022-07-25T14:49:57.466Z,6.30
2022-07-25T14:52:24.856Z,6.28
2022-07-25T14:54:52.608Z,5.80
2022-07-25T14:57:20.423Z,6.20
2022-07-25T14:59:50.829Z,6.10
2022-07-25T15:02:20.375Z,6.30
2022-07-25T15:04:47.806Z,6.30
2022-07-25T15:07:14.959Z,6.28
2022-07-25T15:09:43.352Z,5.88
2022-07-25T15:12:24.772Z,6.07
2022-07-25T15:14:55.538Z,5.90
2022-07-25T15:17:22.539Z,5.70
2022-07-25T15:19:49.619Z,5.47
2022-07-25T15:22:52.691Z,5.78
2022-07-25T15:25:58.368Z,6.20
2022-07-25T15:28:16.368Z,6.15
2022-07-25T15:30:46.253Z,5.82
2022-07-25T15:33:25.743Z,6.20
2022-07-25T15:35:55.995Z,6.30
2022-07-25T15:38:26.669Z,5.90
2022-07-25T15:41:19.953Z,5.72
2022-07-25T15:48:41.142Z,6.55
2022-07-25T15:51:08.796Z,5.72
2022-07-25T15:54:24.030Z,7.70
2022-07-25T15:57:18.732Z,7.60
2022-07-25T16:00:34.672Z,7.88
2022-07-25T16:03:02.977Z,6.72
2022-07-25T16:08:45.291Z,7.15
2022-07-25T16:11:33.795Z,6.72
2022-07-25T16:14:01.607Z,6.47
2022-07-25T16:16:32.750Z,6.15
2022-07-25T16:19:00.759Z,6.40
2022-07-25T16:21:28.405Z,5.50
2022-07-25T16:26:48.059Z,6.00
2022-07-25T16:32:26.215Z,5.45
2022-07-25T16:35:16.327Z,5.85
2022-07-25T16:37:43.678Z,5.55
2022-07-25T16:40:11.754Z,5.38
2022-07-25T16:42:59.935Z,5.32
2022-07-25T16:45:30.545Z,5.75
2022-07-25T16:47:57.625Z,5.20
2022-07-25T16:50:24.713Z,5.68
2022-07-25T16:52:53.597Z,5.28
2022-07-25T16:55:24.040Z,5.32
2022-07-25T16:57:51.075Z,5.57
2022-07-25T17:00:18.524Z,6.30
2022-07-25T17:02:46.681Z,5.43
2022-07-25T17:05:35.468Z,5.30
2022-07-25T17:08:37.788Z,6.28
2022-07-25T17:11:08.595Z,6.07
2022-07-25T17:13:35.723Z,5.93
2022-07-25T17:16:03.966Z,5.80
2022-07-25T17:18:31.507Z,5.93
2022-07-25T17:21:10.880Z,6.00
2022-07-25T17:23:47.403Z,5.57
2022-07-25T17:26:14.924Z,5.82
2022-07-25T17:28:53.938Z,6.60
2022-07-25T17:31:47.608Z,6.38
2022-07-25T17:34:14.741Z,6.40
2022-07-25T17:40:48.059Z,7.07
2022-07-25T17:43:21.778Z,7.15
2022-07-25T17:46:28.343Z,8.25
2022-07-25T17:49:04.804Z,5.72
2022-07-25T17:51:42.338Z,6.95
2022-07-25T17:57:02.965Z,7.13
2022-07-25T17:59:30.414Z,6.95
2022-07-25T18:02:45.745Z,8.02
2022-07-25T18:05:21.458Z,7.03
2022-07-25T18:08:35.564Z,7.00
2022-07-25T18:11:23.058Z,6.88
2022-07-25T18:21:30.248Z,7.00
2022-07-25T18:28:14.239Z,6.97
2022-07-25T18:30:41.651Z,6.70
2022-07-25T18:33:26.593Z,6.65
2022-07-25T18:35:53.868Z,6.68
2022-07-25T18:39:05.933Z,5.90
2022-07-25T18:41:57.555Z,5.90
2022-07-25T18:44:24.631Z,6.40
2022-07-25T18:46:51.626Z,5.78
2022-07-25T18:49:46.126Z,6.15
2022-07-25T18:52:13.760Z,6.10
2022-07-25T18:54:45.942Z,5.07
2022-07-25T18:57:23.337Z,5.50
2022-07-25T19:03:57.013Z,5.55
2022-07-25T19:09:59.410Z,5.70
2022-07-25T19:12:27.267Z,5.85
2022-07-25T19:15:15.983Z,5.35
2022-07-25T19:18:10.493Z,5.50
2022-07-25T19:20:57.192Z,5.75
2022-07-25T19:23:24.157Z,5.30
2022-07-25T19:29:46.482Z,5.85
2022-07-25T19:33:00.239Z,5.45
2022-07-25T19:40:32.465Z,5.43
2022-07-25T19:44:10.768Z,5.70
2022-07-25T19:50:54.365Z,6.00
2022-07-25T19:57:11.901Z,5.72
2022-07-25T20:07:12.519Z,6.63
2022-07-25T20:09:40.396Z,6.47
2022-07-25T20:12:08.602Z,6.38
2022-07-25T20:14:38.162Z,6.30
2022-07-25T20:20:00.741Z,6.45
2022-07-25T20:22:27.873Z,6.70
2022-07-25T20:24:55.280Z,6.00
2022-07-25T20:27:22.853Z,5.10
2022-07-25T20:29:53.042Z,5.47
2022-07-25T20:32:20.407Z,5.43
2022-07-25T20:34:48.215Z,6.53
2022-07-25T20:37:16.292Z,5.50
2022-07-25T20:39:46.321Z,5.72
2022-07-25T20:42:15.744Z,5.13
2022-07-25T20:44:43.189Z,5.43
2022-07-25T20:47:13.709Z,5.22
2022-07-25T20:49:47.051Z,5.10
2022-07-25T20:52:40.686Z,5.18
2022-07-25T20:55:11.033Z,5.13
2022-07-25T20:57:38.086Z,5.00
2022-07-25T21:00:29.664Z,5.18
2022-07-25T21:03:17.865Z,5.60
2022-07-25T21:06:41.660Z,5.28
2022-07-25T21:09:16.299Z,4.93
2022-07-25T21:12:01.118Z,5.55
2022-07-25T21:14:31.502Z,5.38
2022-07-25T21:19:34.000Z,6.35
2022-07-25T21:28:33.770Z,6.38
2022-07-25T21:35:12.692Z,6.15
2022-07-25T21:37:40.369Z,5.70
2022-07-25T21:41:14.492Z,5.78
2022-07-25T21:43:42.626Z,5.70
2022-07-25T21:47:20.367Z,6.53
2022-07-25T21:50:13.841Z,5.57
2022-07-25T21:53:43.865Z,5.63
2022-07-25T21:56:41.474Z,5.50
2022-07-25T22:03:07.296Z,5.32
2022-07-25T22:06:06.801Z,5.20
2022-07-25T22:08:48.524Z,4.95
2022-07-25T22:11:42.294Z,7.07
2022-07-25T22:18:53.923Z,6.75
2022-07-25T22:21:30.265Z,9.30
2022-07-25T22:24:27.898Z,8.00
2022-07-25T22:28:28.440Z,9.25
2022-07-25T22:34:54.890Z,8.98
2022-07-25T23:48:25.144Z,10.25
2022-07-25T23:52:01.016Z,7.93
2022-07-25T23:55:43.528Z,7.22
